ADDS METAR Data INFO
IDs: Format: Raw Decoded Include TAF

Data at: 2253 UTC 22 Jun 2018

KAIT 222235Z AUTO 17006KT 10SM CLR 23/12 A2983 RMK AO2
KAIT 222215Z AUTO 18006KT 10SM CLR 24/13 A2983 RMK AO2
KAIT 222155Z AUTO 19006KT 10SM CLR 24/13 A2984 RMK AO2
KAIT 222135Z AUTO 16007KT 10SM CLR 24/14 A2984 RMK AO2
KAIT 222115Z AUTO 17005KT 10SM CLR 26/13 A2984 RMK AO2
KAIT 222055Z AUTO 14005KT 10SM CLR 26/13 A2985 RMK AO2
KAIT 222035Z AUTO 21005KT 10SM CLR 25/13 A2986 RMK AO2
KAIT 222015Z AUTO 18007KT 10SM CLR 24/13 A2986 RMK AO2
KAIT 221955Z AUTO 18007KT 10SM CLR 25/14 A2986 RMK AO2
KAIT 221935Z AUTO 16005KT 10SM CLR 26/13 A2987 RMK AO2
KAIT 221915Z AUTO 15005KT 10SM CLR 26/13 A2987 RMK AO2
KAIT 221855Z AUTO 00000KT 10SM CLR 25/12 A2988 RMK AO2
KAIT 221835Z AUTO 10003KT 10SM CLR 26/12 A2987 RMK AO2
KAIT 221815Z AUTO 00000KT 10SM CLR 26/12 A2988 RMK AO2
KAIT 221755Z AUTO 12003KT 10SM CLR 25/12 A2988 RMK AO2
KAIT 221735Z AUTO 09003KT 10SM CLR 26/12 A2988 RMK AO2
KAIT 221715Z AUTO 09003KT 10SM CLR 25/12 A2989 RMK AO2
KAIT 221655Z AUTO 07004KT 10SM CLR 24/12 A2989 RMK AO2
KAIT 221635Z AUTO 00000KT 10SM CLR 23/11 A2989 RMK AO2
KAIT 221615Z AUTO 04004KT 10SM CLR 23/11 A2990 RMK AO2
KAIT 221555Z AUTO 00000KT 10SM CLR 22/09 A2990 RMK AO2
KAIT 221535Z AUTO 00000KT 10SM CLR 21/08 A2991 RMK AO2
KAIT 221515Z AUTO 09003KT 10SM CLR 21/09 A2991 RMK AO2
KAIT 221455Z AUTO 00000KT 10SM CLR 21/12 A2992 RMK AO2
KAIT 221435Z AUTO 00000KT 10SM CLR 20/12 A2992 RMK AO2
KAIT 221415Z AUTO 00000KT 10SM CLR 19/10 A2993 RMK AO2
KAIT 221355Z AUTO 00000KT 10SM CLR 17/11 A2993 RMK AO2
KAIT 221335Z AUTO 00000KT 10SM CLR 16/12 A2993 RMK AO2
KAIT 221315Z AUTO 00000KT 10SM CLR 15/12 A2993 RMK AO2
KAIT 221255Z AUTO 00000KT 10SM CLR 14/11 A2993 RMK AO2
KAIT 221235Z AUTO 00000KT 10SM CLR 13/11 A2993 RMK AO2
KAIT 221215Z AUTO 00000KT 10SM CLR 12/09 A2993 RMK AO2
KAIT 221155Z AUTO 00000KT 10SM CLR 11/09 A2994 RMK AO2
KAIT 221135Z AUTO 00000KT 10SM CLR 09/08 A2994 RMK AO2
KAIT 221115Z AUTO 00000KT 10SM CLR 08/07 A2994 RMK AO2
KAIT 221055Z AUTO 00000KT 10SM CLR 08/07 A2993 RMK AO2
KAIT 221035Z AUTO 00000KT 10SM CLR 08/07 A2993 RMK AO2
KAIT 221015Z AUTO 00000KT 7SM CLR 08/07 A2994 RMK AO2
KAIT 220955Z AUTO 00000KT 10SM CLR 07/07 A2994 RMK AO2
KAIT 220935Z AUTO 00000KT 10SM CLR 08/07 A2993 RMK AO2
KAIT 220915Z AUTO 00000KT 10SM CLR 08/07 A2993 RMK AO2
KAIT 220855Z AUTO 00000KT 10SM CLR 08/07 A2994 RMK AO2
KAIT 220835Z AUTO 00000KT 10SM CLR 08/07 A2994 RMK AO2
KAIT 220815Z AUTO 00000KT 10SM CLR 08/07 A2993 RMK AO2
KAIT 220755Z AUTO 00000KT 10SM CLR 09/08 A2993 RMK AO2
KAIT 220735Z AUTO 00000KT 10SM CLR 09/08 A2993 RMK AO2
KAIT 220715Z AUTO 00000KT 10SM CLR 08/08 A2992 RMK AO2
KAIT 220655Z AUTO 00000KT 1 3/4SM BR VV007 09/08 A2993 RMK AO2
KAIT 220635Z AUTO 00000KT 10SM CLR 09/08 A2994 RMK AO2
KAIT 220615Z AUTO 00000KT 5SM BR CLR 10/09 A2994 RMK AO2
KAIT 220555Z AUTO 00000KT 10SM CLR 10/09 A2994 RMK AO2
KAIT 220535Z AUTO 00000KT 10SM CLR 10/09 A2994 RMK AO2
KAIT 220515Z AUTO 00000KT 10SM CLR 11/09 A2994 RMK AO2
KAIT 220455Z AUTO 00000KT 10SM CLR 11/09 A2994 RMK AO2
KAIT 220435Z AUTO 00000KT 10SM CLR 12/10 A2995 RMK AO2
KAIT 220415Z AUTO 00000KT 10SM CLR 12/11 A2995 RMK AO2
KAIT 220355Z AUTO 00000KT 10SM CLR 12/11 A2995 RMK AO2
KAIT 220335Z AUTO 00000KT 10SM CLR 12/11 A2995 RMK AO2
KAIT 220315Z AUTO 00000KT 10SM CLR 13/11 A2995 RMK AO2
KAIT 220255Z AUTO 00000KT 10SM CLR 13/12 A2994 RMK AO2
KAIT 220235Z AUTO 00000KT 10SM CLR 13/11 A2994 RMK AO2
KAIT 220215Z AUTO 00000KT 10SM CLR 15/11 A2993 RMK AO2
KAIT 220156Z AUTO 00000KT 10SM CLR 16/12 A2993 RMK AO2
KAIT 220135Z AUTO 00000KT 10SM CLR 16/12 A2992 RMK AO2
KAIT 220115Z AUTO 00000KT 10SM CLR 19/11 A2992 RMK AO2
KAIT 220055Z AUTO 00000KT 10SM CLR 20/11 A2992 RMK AO2
KAIT 220035Z AUTO 00000KT 10SM CLR 21/10 A2992 RMK AO2
KAIT 220015Z AUTO 10005KT 10SM CLR 21/11 A2992 RMK AO2
KAIT 212355Z AUTO 12007KT 10SM CLR 23/12 A2992 RMK AO2
KAIT 212335Z AUTO 11006KT 10SM CLR 24/12 A2992 RMK AO2
KAIT 212315Z AUTO 11006KT 10SM CLR 25/13 A2992 RMK AO2
KAIT 212255Z AUTO 09004KT 10SM CLR 25/13 A2992 RMK AO2
KAIT 212249Z AUTO 10004KT 10SM CLR 25/13 A2992 RMK AO2
KAIT 212223Z AUTO 09004KT 10SM CLR 24/13 A2992 RMK AO2
KAIT 212215Z AUTO 12006KT 10SM CLR 24/13 A2992 RMK AO2
KAIT 212155Z AUTO 11004KT 10SM CLR 24/13 A2992 RMK AO2
KAIT 212135Z AUTO 10004KT 10SM CLR 24/12 A2992 RMK AO2
KAIT 212115Z AUTO 03003KT 10SM CLR 24/13 A2992 RMK AO2
KAIT 212055Z AUTO 04005KT 10SM CLR 25/12 A2992 RMK AO2
KAIT 212035Z AUTO 09003KT 10SM CLR 25/13 A2992 RMK AO2
KAIT 212015Z AUTO 02006KT 10SM CLR 24/12 A2993 RMK AO2
KAIT 211955Z AUTO 05007KT 10SM CLR 26/13 A2993 RMK AO2
KAIT 211935Z AUTO 06010G14KT 10SM CLR 25/12 A2993 RMK AO2
KAIT 211915Z AUTO 08005KT 10SM CLR 25/13 A2993 RMK AO2
KAIT 211855Z AUTO 08007KT 10SM CLR 24/13 A2994 RMK AO2
KAIT 211835Z AUTO 04008KT 010V090 10SM CLR 24/13 A2994 RMK AO2
KAIT 211815Z AUTO 05008KT 10SM CLR 24/13 A2994 RMK AO2
KAIT 211755Z AUTO 06007KT 10SM CLR 24/13 A2994 RMK AO2
KAIT 211735Z AUTO 03008G14KT 10SM CLR 24/14 A2994 RMK AO2
KAIT 211715Z AUTO 05008KT 10SM CLR 24/13 A2994 RMK AO2
KAIT 211655Z AUTO 05006KT 10SM CLR 23/14 A2994 RMK AO2
KAIT 211635Z AUTO 07007KT 10SM CLR 22/13 A2995 RMK AO2
KAIT 211615Z AUTO 03006KT 10SM CLR 22/14 A2995 RMK AO2
KAIT 211555Z AUTO 05006KT 10SM CLR 21/13 A2995 RMK AO2
KAIT 211535Z AUTO 07003KT 10SM CLR 21/13 A2995 RMK AO2
KAIT 211515Z AUTO 05005KT 10SM CLR 20/13 A2995 RMK AO2
KAIT 211455Z AUTO 07004KT 10SM CLR 18/12 A2995 RMK AO2
KAIT 211435Z AUTO 04005KT 10SM SCT080 18/12 A2995 RMK AO2
KAIT 211355Z AUTO 05005KT 10SM CLR 16/12 A2995 RMK AO2
KAIT 211335Z AUTO 05004KT 10SM SCT080 16/12 A2995 RMK AO2
KAIT 211315Z AUTO 07004KT 10SM SCT080 15/11 A2995 RMK AO2
KAIT 211255Z AUTO 06003KT 10SM CLR 14/11 A2995 RMK AO2
KAIT 211235Z AUTO 08006KT 10SM CLR 14/11 A2995 RMK AO2
KAIT 211215Z AUTO 08003KT 10SM CLR 13/10 A2994 RMK AO2
KAIT 211155Z AUTO 00000KT 10SM CLR 12/10 A2994 RMK AO2
KAIT 211135Z AUTO 08003KT 10SM CLR 12/10 A2993 RMK AO2
KAIT 211115Z AUTO 00000KT 10SM CLR 12/09 A2993 RMK AO2
KAIT 211055Z AUTO 00000KT 10SM CLR 11/09 A2992 RMK AO2